sensor_id;sensor_type;location;lat;lon;timestamp;P1;durP1;ratioP1;P2;durP2;ratioP2
28547;SDS011;15750;49.600;8.746;2023-02-28T00:01:35;2.30;;;2.10;;
28547;SDS011;15750;49.600;8.746;2023-02-28T00:04:04;2.77;;;2.27;;
28547;SDS011;15750;49.600;8.746;2023-02-28T00:06:35;2.27;;;2.07;;
28547;SDS011;15750;49.600;8.746;2023-02-28T00:09:04;2.83;;;2.17;;
28547;SDS011;15750;49.600;8.746;2023-02-28T00:11:34;2.40;;;2.20;;
28547;SDS011;15750;49.600;8.746;2023-02-28T00:14:04;3.97;;;2.00;;
28547;SDS011;15750;49.600;8.746;2023-02-28T00:16:33;3.40;;;2.20;;
28547;SDS011;15750;49.600;8.746;2023-02-28T00:19:01;2.73;;;2.07;;
28547;SDS011;15750;49.600;8.746;2023-02-28T00:21:30;2.40;;;2.20;;
28547;SDS011;15750;49.600;8.746;2023-02-28T00:23:59;3.23;;;2.13;;
28547;SDS011;15750;49.600;8.746;2023-02-28T00:26:27;2.67;;;2.47;;
28547;SDS011;15750;49.600;8.746;2023-02-28T00:28:57;2.20;;;2.00;;
28547;SDS011;15750;49.600;8.746;2023-02-28T00:31:26;3.00;;;2.00;;
28547;SDS011;15750;49.600;8.746;2023-02-28T00:33:55;2.37;;;2.13;;
28547;SDS011;15750;49.600;8.746;2023-02-28T00:36:24;2.60;;;2.37;;
28547;SDS011;15750;49.600;8.746;2023-02-28T00:38:53;3.60;;;2.13;;
28547;SDS011;15750;49.600;8.746;2023-02-28T00:41:22;2.57;;;2.13;;
28547;SDS011;15750;49.600;8.746;2023-02-28T00:43:50;2.60;;;2.30;;
28547;SDS011;15750;49.600;8.746;2023-02-28T00:46:20;3.47;;;2.40;;
28547;SDS011;15750;49.600;8.746;2023-02-28T00:48:49;2.83;;;2.30;;
28547;SDS011;15750;49.600;8.746;2023-02-28T00:51:18;2.87;;;2.40;;
28547;SDS011;15750;49.600;8.746;2023-02-28T00:53:47;3.17;;;2.47;;
28547;SDS011;15750;49.600;8.746;2023-02-28T00:56:16;3.10;;;2.70;;
28547;SDS011;15750;49.600;8.746;2023-02-28T00:58:46;2.87;;;2.23;;
28547;SDS011;15750;49.600;8.746;2023-02-28T01:01:15;2.60;;;2.40;;
28547;SDS011;15750;49.600;8.746;2023-02-28T01:03:45;2.67;;;2.20;;
28547;SDS011;15750;49.600;8.746;2023-02-28T01:06:13;2.70;;;2.30;;
28547;SDS011;15750;49.600;8.746;2023-02-28T01:08:42;2.73;;;2.43;;
28547;SDS011;15750;49.600;8.746;2023-02-28T01:11:11;4.40;;;2.73;;
28547;SDS011;15750;49.600;8.746;2023-02-28T01:13:43;3.03;;;2.60;;
28547;SDS011;15750;49.600;8.746;2023-02-28T01:16:13;2.97;;;2.37;;
28547;SDS011;15750;49.600;8.746;2023-02-28T01:18:46;2.57;;;2.37;;
28547;SDS011;15750;49.600;8.746;2023-02-28T01:21:17;2.63;;;2.43;;
28547;SDS011;15750;49.600;8.746;2023-02-28T01:23:47;3.03;;;2.53;;
28547;SDS011;15750;49.600;8.746;2023-02-28T01:26:17;2.70;;;2.50;;
28547;SDS011;15750;49.600;8.746;2023-02-28T01:28:48;3.33;;;2.53;;
28547;SDS011;15750;49.600;8.746;2023-02-28T01:31:19;2.90;;;2.37;;
28547;SDS011;15750;49.600;8.746;2023-02-28T01:33:50;3.07;;;2.77;;
28547;SDS011;15750;49.600;8.746;2023-02-28T01:36:20;3.73;;;2.83;;
28547;SDS011;15750;49.600;8.746;2023-02-28T01:38:51;3.23;;;2.80;;
28547;SDS011;15750;49.600;8.746;2023-02-28T01:41:21;2.57;;;2.37;;
28547;SDS011;15750;49.600;8.746;2023-02-28T01:43:54;3.13;;;2.60;;
28547;SDS011;15750;49.600;8.746;2023-02-28T01:46:25;2.77;;;2.57;;
28547;SDS011;15750;49.600;8.746;2023-02-28T01:48:56;2.80;;;2.60;;
28547;SDS011;15750;49.600;8.746;2023-02-28T01:51:33;3.00;;;2.70;;
28547;SDS011;15750;49.600;8.746;2023-02-28T01:54:12;3.97;;;2.87;;
28547;SDS011;15750;49.600;8.746;2023-02-28T01:56:47;2.87;;;2.40;;
28547;SDS011;15750;49.600;8.746;2023-02-28T01:59:21;3.03;;;2.73;;
28547;SDS011;15750;49.600;8.746;2023-02-28T02:01:54;4.53;;;3.20;;
28547;SDS011;15750;49.600;8.746;2023-02-28T02:04:26;3.30;;;3.00;;
28547;SDS011;15750;49.600;8.746;2023-02-28T02:07:02;3.60;;;3.00;;
28547;SDS011;15750;49.600;8.746;2023-02-28T02:09:32;2.73;;;2.53;;
28547;SDS011;15750;49.600;8.746;2023-02-28T02:12:23;3.73;;;2.80;;
28547;SDS011;15750;49.600;8.746;2023-02-28T02:15:00;2.97;;;2.47;;
28547;SDS011;15750;49.600;8.746;2023-02-28T02:17:38;3.53;;;2.50;;
28547;SDS011;15750;49.600;8.746;2023-02-28T02:33:24;3.60;;;2.77;;
28547;SDS011;15750;49.600;8.746;2023-02-28T02:36:27;3.20;;;2.90;;
28547;SDS011;15750;49.600;8.746;2023-02-28T02:39:02;4.13;;;2.90;;
28547;SDS011;15750;49.600;8.746;2023-02-28T02:41:48;3.30;;;2.83;;
28547;SDS011;15750;49.600;8.746;2023-02-28T02:44:20;2.90;;;2.60;;
28547;SDS011;15750;49.600;8.746;2023-02-28T02:46:53;4.47;;;3.20;;
28547;SDS011;15750;49.600;8.746;2023-02-28T02:49:30;3.43;;;3.13;;
28547;SDS011;15750;49.600;8.746;2023-02-28T02:52:02;3.20;;;2.90;;
28547;SDS011;15750;49.600;8.746;2023-02-28T02:54:33;3.30;;;3.00;;
28547;SDS011;15750;49.600;8.746;2023-02-28T02:57:07;5.07;;;3.00;;
28547;SDS011;15750;49.600;8.746;2023-02-28T02:59:42;3.23;;;2.93;;
28547;SDS011;15750;49.600;8.746;2023-02-28T03:02:11;4.47;;;3.10;;
28547;SDS011;15750;49.600;8.746;2023-02-28T03:04:45;2.63;;;2.43;;
28547;SDS011;15750;49.600;8.746;2023-02-28T03:07:20;3.23;;;2.93;;
28547;SDS011;15750;49.600;8.746;2023-02-28T03:09:50;4.00;;;3.10;;
28547;SDS011;15750;49.600;8.746;2023-02-28T03:12:20;3.00;;;2.80;;
28547;SDS011;15750;49.600;8.746;2023-02-28T03:14:55;3.03;;;2.77;;
28547;SDS011;15750;49.600;8.746;2023-02-28T03:17:39;4.97;;;2.77;;
28547;SDS011;15750;49.600;8.746;2023-02-28T03:20:35;2.60;;;2.40;;
28547;SDS011;15750;49.600;8.746;2023-02-28T03:23:10;2.80;;;2.60;;
28547;SDS011;15750;49.600;8.746;2023-02-28T03:25:52;3.93;;;2.90;;
28547;SDS011;15750;49.600;8.746;2023-02-28T03:28:27;3.47;;;3.17;;
28547;SDS011;15750;49.600;8.746;2023-02-28T03:31:03;3.40;;;3.10;;
28547;SDS011;15750;49.600;8.746;2023-02-28T03:33:41;3.37;;;2.97;;
28547;SDS011;15750;49.600;8.746;2023-02-28T03:36:23;3.57;;;2.97;;
28547;SDS011;15750;49.600;8.746;2023-02-28T03:38:58;3.33;;;3.03;;
28547;SDS011;15750;49.600;8.746;2023-02-28T03:41:31;3.47;;;3.17;;
28547;SDS011;15750;49.600;8.746;2023-02-28T03:44:07;3.03;;;2.77;;
28547;SDS011;15750;49.600;8.746;2023-02-28T03:46:42;3.57;;;2.63;;
28547;SDS011;15750;49.600;8.746;2023-02-28T03:49:19;3.40;;;3.07;;
28547;SDS011;15750;49.600;8.746;2023-02-28T03:51:53;3.10;;;2.50;;
28547;SDS011;15750;49.600;8.746;2023-02-28T03:54:25;3.00;;;2.80;;
28547;SDS011;15750;49.600;8.746;2023-02-28T03:57:00;3.10;;;2.67;;
28547;SDS011;15750;49.600;8.746;2023-02-28T03:59:36;4.07;;;3.20;;
28547;SDS011;15750;49.600;8.746;2023-02-28T04:02:09;3.07;;;2.73;;
28547;SDS011;15750;49.600;8.746;2023-02-28T04:04:39;3.40;;;3.10;;
28547;SDS011;15750;49.600;8.746;2023-02-28T04:07:16;2.60;;;2.40;;
28547;SDS011;15750;49.600;8.746;2023-02-28T04:09:45;4.23;;;3.13;;
28547;SDS011;15750;49.600;8.746;2023-02-28T04:12:14;2.73;;;2.53;;
28547;SDS011;15750;49.600;8.746;2023-02-28T04:14:43;4.40;;;2.70;;
28547;SDS011;15750;49.600;8.746;2023-02-28T04:17:11;3.30;;;3.00;;
28547;SDS011;15750;49.600;8.746;2023-02-28T04:19:40;2.90;;;2.60;;
28547;SDS011;15750;49.600;8.746;2023-02-28T04:22:09;3.17;;;2.87;;
28547;SDS011;15750;49.600;8.746;2023-02-28T04:24:39;2.70;;;2.50;;
28547;SDS011;15750;49.600;8.746;2023-02-28T04:27:09;3.00;;;2.67;;
28547;SDS011;15750;49.600;8.746;2023-02-28T04:29:38;3.37;;;2.77;;
28547;SDS011;15750;49.600;8.746;2023-02-28T04:32:06;3.00;;;2.70;;
28547;SDS011;15750;49.600;8.746;2023-02-28T04:34:35;3.07;;;2.87;;
28547;SDS011;15750;49.600;8.746;2023-02-28T04:37:04;2.97;;;2.70;;
28547;SDS011;15750;49.600;8.746;2023-02-28T04:39:41;3.17;;;2.90;;
28547;SDS011;15750;49.600;8.746;2023-02-28T04:42:10;4.40;;;3.47;;
28547;SDS011;15750;49.600;8.746;2023-02-28T04:44:39;2.97;;;2.73;;
28547;SDS011;15750;49.600;8.746;2023-02-28T04:47:08;3.17;;;2.87;;
28547;SDS011;15750;49.600;8.746;2023-02-28T04:49:37;3.80;;;3.07;;
28547;SDS011;15750;49.600;8.746;2023-02-28T04:52:07;3.80;;;2.87;;
28547;SDS011;15750;49.600;8.746;2023-02-28T04:54:36;3.37;;;3.00;;
28547;SDS011;15750;49.600;8.746;2023-02-28T04:57:07;4.03;;;2.90;;
28547;SDS011;15750;49.600;8.746;2023-02-28T04:59:36;2.97;;;2.67;;
28547;SDS011;15750;49.600;8.746;2023-02-28T05:02:05;3.13;;;2.83;;
28547;SDS011;15750;49.600;8.746;2023-02-28T05:04:34;3.13;;;2.90;;
28547;SDS011;15750;49.600;8.746;2023-02-28T05:07:03;3.47;;;2.87;;
28547;SDS011;15750;49.600;8.746;2023-02-28T05:09:31;3.20;;;2.80;;
28547;SDS011;15750;49.600;8.746;2023-02-28T05:12:01;3.50;;;3.10;;
28547;SDS011;15750;49.600;8.746;2023-02-28T05:14:31;3.27;;;2.97;;
28547;SDS011;15750;49.600;8.746;2023-02-28T05:17:00;3.47;;;3.17;;
28547;SDS011;15750;49.600;8.746;2023-02-28T05:19:28;3.07;;;2.87;;
28547;SDS011;15750;49.600;8.746;2023-02-28T05:21:57;5.63;;;2.80;;
28547;SDS011;15750;49.600;8.746;2023-02-28T05:24:26;3.37;;;3.00;;
28547;SDS011;15750;49.600;8.746;2023-02-28T05:26:54;3.87;;;3.23;;
28547;SDS011;15750;49.600;8.746;2023-02-28T05:29:23;4.60;;;3.40;;
28547;SDS011;15750;49.600;8.746;2023-02-28T05:31:53;3.33;;;2.80;;
28547;SDS011;15750;49.600;8.746;2023-02-28T05:34:22;4.00;;;3.10;;
28547;SDS011;15750;49.600;8.746;2023-02-28T05:36:51;3.50;;;3.10;;
28547;SDS011;15750;49.600;8.746;2023-02-28T05:39:19;3.40;;;3.10;;
28547;SDS011;15750;49.600;8.746;2023-02-28T05:41:49;3.60;;;3.30;;
28547;SDS011;15750;49.600;8.746;2023-02-28T05:44:17;3.20;;;2.90;;
28547;SDS011;15750;49.600;8.746;2023-02-28T05:46:46;3.33;;;3.03;;
28547;SDS011;15750;49.600;8.746;2023-02-28T05:49:16;3.43;;;3.13;;
28547;SDS011;15750;49.600;8.746;2023-02-28T05:51:45;3.40;;;3.10;;
28547;SDS011;15750;49.600;8.746;2023-02-28T05:54:13;3.80;;;3.50;;
28547;SDS011;15750;49.600;8.746;2023-02-28T05:56:42;5.30;;;3.50;;
28547;SDS011;15750;49.600;8.746;2023-02-28T05:59:12;4.07;;;3.43;;
28547;SDS011;15750;49.600;8.746;2023-02-28T06:01:41;3.57;;;3.10;;
28547;SDS011;15750;49.600;8.746;2023-02-28T06:04:17;4.63;;;3.50;;
28547;SDS011;15750;49.600;8.746;2023-02-28T06:06:57;4.10;;;3.37;;
28547;SDS011;15750;49.600;8.746;2023-02-28T06:09:26;3.93;;;3.30;;
28547;SDS011;15750;49.600;8.746;2023-02-28T06:11:57;4.30;;;3.53;;
28547;SDS011;15750;49.600;8.746;2023-02-28T06:14:26;6.20;;;3.37;;
28547;SDS011;15750;49.600;8.746;2023-02-28T06:16:55;3.77;;;3.47;;
28547;SDS011;15750;49.600;8.746;2023-02-28T06:19:28;5.37;;;3.60;;
28547;SDS011;15750;49.600;8.746;2023-02-28T06:21:57;4.23;;;3.60;;
28547;SDS011;15750;49.600;8.746;2023-02-28T06:24:26;3.70;;;3.23;;
28547;SDS011;15750;49.600;8.746;2023-02-28T06:26:58;5.23;;;3.40;;
28547;SDS011;15750;49.600;8.746;2023-02-28T06:29:32;4.93;;;3.60;;
28547;SDS011;15750;49.600;8.746;2023-02-28T06:32:02;4.17;;;3.53;;
28547;SDS011;15750;49.600;8.746;2023-02-28T06:34:32;3.93;;;3.63;;
28547;SDS011;15750;49.600;8.746;2023-02-28T06:37:01;4.10;;;3.70;;
28547;SDS011;15750;49.600;8.746;2023-02-28T06:39:30;5.30;;;3.70;;
28547;SDS011;15750;49.600;8.746;2023-02-28T06:41:59;3.83;;;3.53;;
28547;SDS011;15750;49.600;8.746;2023-02-28T06:44:28;3.87;;;3.27;;
28547;SDS011;15750;49.600;8.746;2023-02-28T06:47:01;6.63;;;3.77;;
28547;SDS011;15750;49.600;8.746;2023-02-28T06:49:33;3.70;;;3.40;;
28547;SDS011;15750;49.600;8.746;2023-02-28T06:52:03;4.57;;;3.97;;
28547;SDS011;15750;49.600;8.746;2023-02-28T06:54:32;4.67;;;3.87;;
28547;SDS011;15750;49.600;8.746;2023-02-28T06:57:00;4.30;;;3.90;;
28547;SDS011;15750;49.600;8.746;2023-02-28T06:59:29;4.23;;;3.50;;
28547;SDS011;15750;49.600;8.746;2023-02-28T07:01:58;4.73;;;3.93;;
28547;SDS011;15750;49.600;8.746;2023-02-28T07:04:29;4.77;;;3.80;;
28547;SDS011;15750;49.600;8.746;2023-02-28T07:06:59;4.00;;;3.60;;
28547;SDS011;15750;49.600;8.746;2023-02-28T07:09:27;4.47;;;3.87;;
28547;SDS011;15750;49.600;8.746;2023-02-28T07:11:56;4.43;;;3.97;;
28547;SDS011;15750;49.600;8.746;2023-02-28T07:14:25;4.57;;;3.97;;
28547;SDS011;15750;49.600;8.746;2023-02-28T07:16:54;4.30;;;3.87;;
28547;SDS011;15750;49.600;8.746;2023-02-28T07:19:23;3.80;;;3.50;;
28547;SDS011;15750;49.600;8.746;2023-02-28T07:21:53;4.13;;;3.73;;
28547;SDS011;15750;49.600;8.746;2023-02-28T07:24:23;3.63;;;3.30;;
28547;SDS011;15750;49.600;8.746;2023-02-28T07:26:54;4.17;;;3.53;;
28547;SDS011;15750;49.600;8.746;2023-02-28T07:29:23;4.23;;;3.83;;
28547;SDS011;15750;49.600;8.746;2023-02-28T07:31:52;3.90;;;3.47;;
28547;SDS011;15750;49.600;8.746;2023-02-28T07:34:21;5.60;;;3.83;;
28547;SDS011;15750;49.600;8.746;2023-02-28T07:36:52;4.63;;;3.73;;
28547;SDS011;15750;49.600;8.746;2023-02-28T07:39:22;3.90;;;3.60;;
28547;SDS011;15750;49.600;8.746;2023-02-28T07:41:51;3.70;;;3.40;;
28547;SDS011;15750;49.600;8.746;2023-02-28T07:44:25;4.87;;;3.80;;
28547;SDS011;15750;49.600;8.746;2023-02-28T07:46:53;4.13;;;3.57;;
28547;SDS011;15750;49.600;8.746;2023-02-28T07:49:22;4.20;;;3.80;;
28547;SDS011;15750;49.600;8.746;2023-02-28T07:51:51;4.00;;;3.63;;
28547;SDS011;15750;49.600;8.746;2023-02-28T07:54:19;4.43;;;3.23;;
28547;SDS011;15750;49.600;8.746;2023-02-28T07:56:50;4.37;;;3.80;;
28547;SDS011;15750;49.600;8.746;2023-02-28T07:59:19;4.57;;;3.70;;
28547;SDS011;15750;49.600;8.746;2023-02-28T08:01:48;4.00;;;3.60;;
28547;SDS011;15750;49.600;8.746;2023-02-28T08:04:17;3.90;;;3.50;;
28547;SDS011;15750;49.600;8.746;2023-02-28T08:06:45;4.53;;;4.00;;
28547;SDS011;15750;49.600;8.746;2023-02-28T08:09:14;4.83;;;3.73;;
28547;SDS011;15750;49.600;8.746;2023-02-28T08:11:43;4.13;;;3.73;;
28547;SDS011;15750;49.600;8.746;2023-02-28T08:14:13;4.20;;;3.80;;
28547;SDS011;15750;49.600;8.746;2023-02-28T08:16:42;4.20;;;3.90;;
28547;SDS011;15750;49.600;8.746;2023-02-28T08:19:10;5.43;;;4.20;;
28547;SDS011;15750;49.600;8.746;2023-02-28T08:21:39;4.93;;;4.23;;
28547;SDS011;15750;49.600;8.746;2023-02-28T08:24:08;5.40;;;3.93;;
28547;SDS011;15750;49.600;8.746;2023-02-28T08:26:36;4.50;;;4.10;;
28547;SDS011;15750;49.600;8.746;2023-02-28T08:29:05;4.30;;;3.90;;
28547;SDS011;15750;49.600;8.746;2023-02-28T08:31:35;4.87;;;4.37;;
28547;SDS011;15750;49.600;8.746;2023-02-28T08:34:05;5.80;;;4.20;;
28547;SDS011;15750;49.600;8.746;2023-02-28T08:36:34;8.67;;;5.00;;
28547;SDS011;15750;49.600;8.746;2023-02-28T08:39:03;5.00;;;4.50;;
28547;SDS011;15750;49.600;8.746;2023-02-28T08:41:32;4.77;;;4.37;;
28547;SDS011;15750;49.600;8.746;2023-02-28T08:44:01;4.63;;;4.23;;
28547;SDS011;15750;49.600;8.746;2023-02-28T08:46:30;5.30;;;4.03;;
28547;SDS011;15750;49.600;8.746;2023-02-28T08:49:00;5.13;;;4.10;;
28547;SDS011;15750;49.600;8.746;2023-02-28T08:51:29;4.93;;;4.37;;
28547;SDS011;15750;49.600;8.746;2023-02-28T08:53:58;5.00;;;4.50;;
28547;SDS011;15750;49.600;8.746;2023-02-28T08:56:28;6.30;;;4.17;;
28547;SDS011;15750;49.600;8.746;2023-02-28T08:58:57;6.30;;;4.50;;
28547;SDS011;15750;49.600;8.746;2023-02-28T09:01:26;5.40;;;4.90;;
28547;SDS011;15750;49.600;8.746;2023-02-28T09:03:57;5.37;;;4.87;;
28547;SDS011;15750;49.600;8.746;2023-02-28T09:06:28;6.30;;;4.77;;
28547;SDS011;15750;49.600;8.746;2023-02-28T09:08:58;5.27;;;4.73;;
28547;SDS011;15750;49.600;8.746;2023-02-28T09:11:28;4.87;;;4.37;;
28547;SDS011;15750;49.600;8.746;2023-02-28T09:13:57;5.37;;;4.43;;
28547;SDS011;15750;49.600;8.746;2023-02-28T09:16:26;4.77;;;4.37;;
28547;SDS011;15750;49.600;8.746;2023-02-28T09:18:55;7.47;;;4.53;;
28547;SDS011;15750;49.600;8.746;2023-02-28T09:21:25;5.13;;;4.43;;
28547;SDS011;15750;49.600;8.746;2023-02-28T09:23:55;5.20;;;4.30;;
28547;SDS011;15750;49.600;8.746;2023-02-28T09:26:24;5.43;;;4.70;;
28547;SDS011;15750;49.600;8.746;2023-02-28T09:29:08;5.43;;;4.77;;
28547;SDS011;15750;49.600;8.746;2023-02-28T09:31:37;5.13;;;4.63;;
28547;SDS011;15750;49.600;8.746;2023-02-28T09:34:06;5.83;;;4.57;;
28547;SDS011;15750;49.600;8.746;2023-02-28T09:36:36;5.93;;;4.70;;
28547;SDS011;15750;49.600;8.746;2023-02-28T09:39:11;5.60;;;4.90;;
28547;SDS011;15750;49.600;8.746;2023-02-28T09:41:42;4.87;;;4.30;;
28547;SDS011;15750;49.600;8.746;2023-02-28T09:44:20;6.40;;;5.60;;
28547;SDS011;15750;49.600;8.746;2023-02-28T09:46:56;4.80;;;4.40;;
28547;SDS011;15750;49.600;8.746;2023-02-28T09:49:31;6.50;;;4.83;;
28547;SDS011;15750;49.600;8.746;2023-02-28T09:52:09;6.33;;;5.00;;
28547;SDS011;15750;49.600;8.746;2023-02-28T09:54:42;4.80;;;4.40;;
28547;SDS011;15750;49.600;8.746;2023-02-28T09:57:13;5.93;;;5.30;;
28547;SDS011;68292;49.600;8.746;2023-02-28T09:59:53;6.43;;;5.20;;
28547;SDS011;68292;49.600;8.746;2023-02-28T10:02:50;6.20;;;5.60;;
28547;SDS011;68292;49.600;8.746;2023-02-28T10:05:51;5.17;;;4.67;;
28547;SDS011;68292;49.600;8.746;2023-02-28T10:08:27;6.27;;;5.17;;
28547;SDS011;68292;49.600;8.746;2023-02-28T10:11:02;6.70;;;5.30;;
28547;SDS011;68292;49.600;8.746;2023-02-28T10:13:36;5.63;;;4.93;;
28547;SDS011;68292;49.600;8.746;2023-02-28T10:16:16;6.30;;;5.70;;
28547;SDS011;68292;49.600;8.746;2023-02-28T10:18:56;6.03;;;5.43;;
28547;SDS011;68292;49.600;8.746;2023-02-28T10:21:31;5.33;;;4.83;;
28547;SDS011;68292;49.600;8.746;2023-02-28T10:26:58;6.10;;;5.30;;
28547;SDS011;68292;49.600;8.746;2023-02-28T10:29:31;5.53;;;4.83;;
28547;SDS011;68292;49.600;8.746;2023-02-28T10:32:01;5.43;;;4.93;;
28547;SDS011;68292;49.600;8.746;2023-02-28T10:34:31;5.67;;;5.10;;
28547;SDS011;68292;49.600;8.746;2023-02-28T10:37:00;5.10;;;4.60;;
28547;SDS011;68292;49.600;8.746;2023-02-28T10:39:36;5.83;;;5.27;;
28547;SDS011;68292;49.600;8.746;2023-02-28T10:42:18;5.90;;;5.30;;
28547;SDS011;68292;49.600;8.746;2023-02-28T10:45:06;7.50;;;5.30;;
28547;SDS011;68292;49.600;8.746;2023-02-28T10:47:42;5.70;;;5.20;;
28547;SDS011;68292;49.600;8.746;2023-02-28T10:50:26;6.03;;;5.37;;
28547;SDS011;68292;49.600;8.746;2023-02-28T10:53:05;5.90;;;5.30;;
28547;SDS011;68292;49.600;8.746;2023-02-28T10:55:46;5.63;;;5.13;;
28547;SDS011;68292;49.600;8.746;2023-02-28T10:58:27;6.53;;;5.30;;
28547;SDS011;68292;49.600;8.746;2023-02-28T11:00:58;6.43;;;5.47;;
28547;SDS011;68292;49.600;8.746;2023-02-28T11:03:31;6.47;;;5.80;;
28547;SDS011;68292;49.600;8.746;2023-02-28T11:06:06;8.17;;;5.33;;
28547;SDS011;68292;49.600;8.746;2023-02-28T11:08:46;6.83;;;5.60;;
28547;SDS011;68292;49.600;8.746;2023-02-28T11:11:20;5.93;;;5.27;;
28547;SDS011;68292;49.600;8.746;2023-02-28T11:13:53;5.67;;;5.10;;
28547;SDS011;68292;49.600;8.746;2023-02-28T11:16:31;5.97;;;5.17;;
28547;SDS011;68292;49.600;8.746;2023-02-28T11:19:02;5.70;;;5.20;;
28547;SDS011;68292;49.600;8.746;2023-02-28T11:21:35;5.40;;;4.87;;
28547;SDS011;68292;49.600;8.746;2023-02-28T11:24:12;5.93;;;5.43;;
28547;SDS011;68292;49.600;8.746;2023-02-28T11:26:50;6.47;;;5.87;;
28547;SDS011;68292;49.600;8.746;2023-02-28T11:29:20;5.90;;;5.30;;
28547;SDS011;68292;49.600;8.746;2023-02-28T11:34:41;6.97;;;5.93;;
28547;SDS011;68292;49.600;8.746;2023-02-28T11:37:12;7.23;;;5.47;;
28547;SDS011;68292;49.600;8.746;2023-02-28T11:39:43;6.93;;;6.10;;
28547;SDS011;68292;49.600;8.746;2023-02-28T11:45:21;6.23;;;5.63;;
28547;SDS011;68292;49.600;8.746;2023-02-28T11:48:11;6.97;;;6.30;;
28547;SDS011;68292;49.600;8.746;2023-02-28T11:50:49;5.60;;;5.10;;
28547;SDS011;68292;49.600;8.746;2023-02-28T11:56:23;6.67;;;5.97;;
28547;SDS011;68292;49.600;8.746;2023-02-28T11:59:03;7.47;;;6.57;;
28547;SDS011;68292;49.600;8.746;2023-02-28T12:02:01;6.90;;;6.20;;
28547;SDS011;68292;49.600;8.746;2023-02-28T12:04:47;6.13;;;5.53;;
28547;SDS011;68292;49.600;8.746;2023-02-28T12:07:35;6.40;;;5.80;;
28547;SDS011;68292;49.600;8.746;2023-02-28T12:10:20;7.57;;;6.67;;
28547;SDS011;68292;49.600;8.746;2023-02-28T12:12:55;6.77;;;6.10;;
28547;SDS011;68292;49.600;8.746;2023-02-28T12:15:51;6.97;;;6.17;;
28547;SDS011;68292;49.600;8.746;2023-02-28T12:19:13;7.43;;;5.90;;
28547;SDS011;68292;49.600;8.746;2023-02-28T12:21:51;8.77;;;6.30;;
28547;SDS011;68292;49.600;8.746;2023-02-28T12:25:13;6.10;;;5.50;;
28547;SDS011;68292;49.600;8.746;2023-02-28T12:28:03;6.80;;;6.03;;
28547;SDS011;68292;49.600;8.746;2023-02-28T12:30:34;6.17;;;5.57;;
28547;SDS011;68292;49.600;8.746;2023-02-28T12:33:07;7.03;;;6.27;;
28547;SDS011;68292;49.600;8.746;2023-02-28T12:35:41;7.47;;;5.90;;
28547;SDS011;68292;49.600;8.746;2023-02-28T12:38:18;7.03;;;6.10;;
28547;SDS011;68292;49.600;8.746;2023-02-28T12:40:52;5.97;;;5.37;;
28547;SDS011;68292;49.600;8.746;2023-02-28T12:43:25;6.10;;;5.50;;
28547;SDS011;68292;49.600;8.746;2023-02-28T12:46:00;7.57;;;5.60;;
28547;SDS011;68292;49.600;8.746;2023-02-28T12:48:39;7.77;;;6.50;;
28547;SDS011;68292;49.600;8.746;2023-02-28T12:51:12;6.87;;;6.00;;
28547;SDS011;68292;49.600;8.746;2023-02-28T12:53:48;5.97;;;5.37;;
28547;SDS011;68292;49.600;8.746;2023-02-28T12:56:29;6.00;;;5.50;;
28547;SDS011;68292;49.600;8.746;2023-02-28T12:59:12;6.90;;;6.03;;
28547;SDS011;68292;49.600;8.746;2023-02-28T13:04:56;6.37;;;5.73;;
28547;SDS011;68292;49.600;8.746;2023-02-28T13:07:46;6.30;;;5.70;;
28547;SDS011;68292;49.600;8.746;2023-02-28T13:10:41;6.37;;;5.77;;
28547;SDS011;68292;49.600;8.746;2023-02-28T13:13:16;6.50;;;5.80;;
28547;SDS011;68292;49.600;8.746;2023-02-28T13:15:57;7.27;;;5.93;;
28547;SDS011;68292;49.600;8.746;2023-02-28T13:18:33;6.67;;;5.53;;
28547;SDS011;68292;49.600;8.746;2023-02-28T13:21:08;7.53;;;6.00;;
28547;SDS011;68292;49.600;8.746;2023-02-28T13:24:00;7.40;;;6.13;;
28547;SDS011;68292;49.600;8.746;2023-02-28T13:29:58;6.53;;;5.23;;
28547;SDS011;68292;49.600;8.746;2023-02-28T13:32:33;6.87;;;5.93;;
28547;SDS011;68292;49.600;8.746;2023-02-28T13:35:14;6.43;;;5.30;;
28547;SDS011;68292;49.600;8.746;2023-02-28T13:38:22;6.63;;;6.00;;
28547;SDS011;68292;49.600;8.746;2023-02-28T13:44:23;5.73;;;5.13;;
28547;SDS011;68292;49.600;8.746;2023-02-28T13:49:52;8.63;;;6.33;;
28547;SDS011;68292;49.600;8.746;2023-02-28T13:52:22;7.07;;;5.83;;
28547;SDS011;68292;49.600;8.746;2023-02-28T13:55:19;6.33;;;5.73;;
28547;SDS011;68292;49.600;8.746;2023-02-28T13:58:07;7.30;;;6.60;;
28547;SDS011;68292;49.600;8.746;2023-02-28T14:00:57;7.27;;;6.57;;
28547;SDS011;68292;49.600;8.746;2023-02-28T14:06:59;7.67;;;6.50;;
28547;SDS011;68292;49.600;8.746;2023-02-28T14:09:29;6.67;;;6.00;;
28547;SDS011;68292;49.600;8.746;2023-02-28T14:15:38;6.47;;;5.87;;
28547;SDS011;68292;49.600;8.746;2023-02-28T14:18:20;6.60;;;5.90;;
28547;SDS011;68292;49.600;8.746;2023-02-28T14:20:57;8.80;;;5.77;;
28547;SDS011;68292;49.600;8.746;2023-02-28T14:23:43;7.93;;;6.23;;
28547;SDS011;68292;49.600;8.746;2023-02-28T14:26:44;7.47;;;5.80;;
28547;SDS011;68292;49.600;8.746;2023-02-28T14:29:30;6.30;;;5.70;;
28547;SDS011;68292;49.600;8.746;2023-02-28T14:32:30;6.10;;;5.50;;
28547;SDS011;68292;49.600;8.746;2023-02-28T14:35:05;6.43;;;5.83;;
28547;SDS011;68292;49.600;8.746;2023-02-28T14:37:49;6.27;;;5.67;;
28547;SDS011;68292;49.600;8.746;2023-02-28T14:40:19;6.37;;;5.27;;
28547;SDS011;68292;49.600;8.746;2023-02-28T14:42:55;7.27;;;6.07;;
28547;SDS011;68292;49.600;8.746;2023-02-28T14:45:26;6.60;;;6.00;;
28547;SDS011;68292;49.600;8.746;2023-02-28T14:47:59;7.00;;;6.07;;
28547;SDS011;68292;49.600;8.746;2023-02-28T14:50:29;6.10;;;5.50;;
28547;SDS011;68292;49.600;8.746;2023-02-28T14:53:00;6.97;;;6.17;;
28547;SDS011;68292;49.600;8.746;2023-02-28T14:55:31;6.43;;;5.73;;
28547;SDS011;68292;49.600;8.746;2023-02-28T14:58:03;6.00;;;5.40;;
28547;SDS011;68292;49.600;8.746;2023-02-28T15:00:34;6.27;;;5.67;;
28547;SDS011;68292;49.600;8.746;2023-02-28T15:03:17;7.47;;;5.93;;
28547;SDS011;68292;49.600;8.746;2023-02-28T15:05:51;6.53;;;5.80;;
28547;SDS011;68292;49.600;8.746;2023-02-28T15:08:21;6.20;;;5.60;;
28547;SDS011;68292;49.600;8.746;2023-02-28T15:10:51;5.97;;;5.40;;
28547;SDS011;68292;49.600;8.746;2023-02-28T15:13:22;6.70;;;5.80;;
28547;SDS011;68292;49.600;8.746;2023-02-28T15:15:57;6.80;;;6.03;;
28547;SDS011;68292;49.600;8.746;2023-02-28T15:18:33;6.30;;;5.40;;
28547;SDS011;68292;49.600;8.746;2023-02-28T15:21:12;7.80;;;6.20;;
28547;SDS011;68292;49.600;8.746;2023-02-28T15:23:45;6.20;;;5.60;;
28547;SDS011;68292;49.600;8.746;2023-02-28T15:26:18;7.63;;;6.30;;
28547;SDS011;68292;49.600;8.746;2023-02-28T15:28:51;6.80;;;6.20;;
28547;SDS011;68292;49.600;8.746;2023-02-28T15:31:27;7.17;;;6.47;;
28547;SDS011;68292;49.600;8.746;2023-02-28T15:34:18;7.33;;;6.00;;
28547;SDS011;68292;49.600;8.746;2023-02-28T15:36:53;6.13;;;5.53;;
28547;SDS011;68292;49.600;8.746;2023-02-28T15:39:24;6.53;;;5.37;;
28547;SDS011;68292;49.600;8.746;2023-02-28T15:42:09;6.77;;;5.80;;
28547;SDS011;68292;49.600;8.746;2023-02-28T15:44:39;5.57;;;5.00;;
28547;SDS011;68292;49.600;8.746;2023-02-28T15:47:14;6.27;;;5.47;;
28547;SDS011;68292;49.600;8.746;2023-02-28T15:49:47;6.53;;;5.87;;
28547;SDS011;68292;49.600;8.746;2023-02-28T15:52:21;6.30;;;5.70;;
28547;SDS011;68292;49.600;8.746;2023-02-28T15:54:55;6.50;;;5.77;;
28547;SDS011;68292;49.600;8.746;2023-02-28T15:57:25;7.23;;;5.97;;
28547;SDS011;68292;49.600;8.746;2023-02-28T15:59:57;6.83;;;6.13;;
28547;SDS011;68292;49.600;8.746;2023-02-28T16:02:39;8.07;;;6.07;;
28547;SDS011;68292;49.600;8.746;2023-02-28T16:05:20;6.87;;;5.87;;
28547;SDS011;68292;49.600;8.746;2023-02-28T16:07:58;6.47;;;5.73;;
28547;SDS011;68292;49.600;8.746;2023-02-28T16:10:28;7.73;;;6.67;;
28547;SDS011;68292;49.600;8.746;2023-02-28T16:12:57;8.00;;;6.40;;